A- A+ FrançaisEnglishEspañol中国

Services sur Internet Soldes sur Internet Des idées de cadeaux Météo Météo aéro

La météo à : Autours de vous Tarbes-Lourdes-PyrénéesPau-PyrénéesRennes-St-Jacques Quimper-Pluguffan

La météo aéronautique pour les pilotes, la préparation du vol avec les METAR (METeorological Aerodrome Report, message d'observation des conditions météorologiques pour l'aviation) et Les TAF (Terminal Aerodrome Forecast : message de prévision à court terme des conditions météorologiques pour l'aviation). Et les autres ressources comme les VAC (Visual Approch Chart) et les NOTAM (Notice To Airman) pour préprer les vols.

Aéroport Stockholm Arlanda (Suède) / OACI ESSA/ IATA ARN

L'altitude de l'aéroport Stockholm Arlanda est de 42 m = 138 ft. Il est situé à proximité de Stockholm (Suède). La météo générale à 5 jours est disponible pour Sigtuna Kommun situé à 0.2 km.

METAR de l'aéroport Stockholm Arlanda - ESSA

ESSA 082020Z 23020KT 9999 BKN022 06/03 Q0973 R01L/29//95 R08/29//95 R01R/29//95 NOSIG

Décodage du METAR de l'aéroport Stockholm Arlanda (SE)

METAR émis par ESSA le dimanche 8 décembre 2019 à 20:20 heure TU, il y a 17 minutes.

La visibilité est de supérieure à 10 km = supérieure à 6.2 sm.

La température est de 6°C = 43 °F et le point rosée est de 3°C = 37 °F . Ce qui correspond à 81% d'humidité relative.

Le QNH est de 973 hPa = 28.73 inHg

Vent de 20 kt = 37 km/h, orienté à 230°.

Nuages : Couverture nuageuse fragmentée à 2200 ft = 670 mètres.

R01L/29//95 R08/29//95 R01R/29//95 aucun changement significatif dans les deux heures à venir

TAF de l'aéroport Stockholm Arlanda - ESSA

ESSA 060857Z 0608/0706 23015KT 9999 SCT005 BKN015 TEMPO 0608/0612 3500 BR BKN004 BECMG 0623/0701 2000 RA BR BKN006

ESSA 060857Z 0608/0706 23015KT 9999 nuages épars à 005 couverture nuageuse fragmentée à 015 temporairement 0608/0612 3500 brume couverture nuageuse fragmentée à 004 devenant 0623/0701 2000 pluie brume couverture nuageuse fragmentée à 006

Aéroport à proximité de Stockholm Arlanda

Météo générale à 5 jours à Sigtuna Kommun (0.2 km)Aéroport Uppsala (33 km)Aéroport Stockholm Bronna (33 km)Aéroport Norrtalje (45 km)Aéroport Vastervas Hasslo (73 km)Aéroport Eskiltuna (76 km)Aéroport Stockholm Skavsta (112 km)

VAC de l'aéroport Stockholm Arlanda - ESSA

La carte d'approche à vue (VAC Visual Approah Chart) est fournie sans aucune garantie de son actualité. Le pilote est le seul responsable de la vérification de sa validité avant de l'utiliser opérationnellement pour préparer un vol ou l'utiliser lors de sa navigation.

VAC de ESSA

Vue aérienne de l'aéroport Stockholm Arlanda

NOTAM de l'aéroport Stockholm Arlanda

Les NOTAM sont fournis sans aucune garantie de leur actualité. Le pilote est le seul responsable de la vérification de sa validité avant de l'utiliser opérationnellement pour préparer un vol ou l'utiliser lors de sa navigation.

Pas de NOTAM

Sources des données